Time;durP1;ratioP1;P1;durP2;ratioP2;P2;SDS_P1;SDS_P2;PMS_P1;PMS_P2;Temp;Humidity;BMP_temperature;BMP_pressure;BME280_temperature;BME280_humidity;BME280_pressure;Samples;Min_cycle;Max_cycle;Signal;HPM_P1;HPM_P2
2024/03/13 00:01:24;;;;;;;11.48;7.97;;;;;;;;;;5093460;28;20071;-57
2024/03/13 00:03:52;;;;;;;11.25;8.35;;;;;;;;;;5095957;28;20048;-57
2024/03/13 00:06:21;;;;;;;11.48;7.90;;;;;;;;;;5090625;28;20059;-57
2024/03/13 00:08:48;;;;;;;12.80;9.20;;;;;;;;;;5090472;28;20048;-56
2024/03/13 00:11:15;;;;;;;12.77;8.20;;;;;;;;;;5085793;28;20059;-57
2024/03/13 00:13:43;;;;;;;12.65;9.32;;;;;;;;;;5093874;28;20059;-56
2024/03/13 00:16:12;;;;;;;12.50;8.13;;;;;;;;;;5078766;28;20287;-56
2024/03/13 00:18:39;;;;;;;11.93;8.13;;;;;;;;;;5073715;28;20408;-56
2024/03/13 00:21:08;;;;;;;12.35;8.85;;;;;;;;;;5091649;28;20059;-58
2024/03/13 00:23:35;;;;;;;12.20;8.30;;;;;;;;;;5103354;28;20048;-58
2024/03/13 00:26:01;;;;;;;11.30;8.27;;;;;;;;;;5099271;28;20063;-59
2024/03/13 00:28:28;;;;;;;11.40;8.00;;;;;;;;;;5079111;28;20052;-57
2024/03/13 00:30:55;;;;;;;12.85;8.23;;;;;;;;;;5082986;28;20405;-56
2024/03/13 00:33:22;;;;;;;12.63;8.20;;;;;;;;;;5088224;28;20040;-58
2024/03/13 00:35:49;;;;;;;12.07;8.20;;;;;;;;;;5091895;28;20056;-56
2024/03/13 00:38:17;;;;;;;11.25;7.78;;;;;;;;;;5097725;28;20059;-58
2024/03/13 00:40:45;;;;;;;10.85;7.30;;;;;;;;;;5094082;28;20044;-57
2024/03/13 00:43:12;;;;;;;10.63;7.28;;;;;;;;;;5072274;28;20048;-57
2024/03/13 00:45:39;;;;;;;10.27;7.55;;;;;;;;;;5072331;28;20056;-57
2024/03/13 00:48:07;;;;;;;10.38;7.07;;;;;;;;;;5097508;28;20051;-57
2024/03/13 00:50:34;;;;;;;9.57;7.10;;;;;;;;;;5101129;28;20048;-57
2024/03/13 00:53:01;;;;;;;10.55;7.22;;;;;;;;;;5100800;28;20354;-57
2024/03/13 00:55:29;;;;;;;9.85;6.75;;;;;;;;;;5094837;28;20056;-57
2024/03/13 00:57:56;;;;;;;9.55;6.47;;;;;;;;;;5094802;28;20063;-57
2024/03/13 01:00:28;;;;;;;7.90;6.10;;;;;;;;;;5076580;28;20060;-58
2024/03/13 01:02:55;;;;;;;9.13;6.75;;;;;;;;;;5092714;28;20048;-58
2024/03/13 01:05:22;;;;;;;8.98;6.25;;;;;;;;;;5102835;28;20058;-58
2024/03/13 01:07:50;;;;;;;7.60;5.43;;;;;;;;;;5106763;28;20048;-58
2024/03/13 01:10:17;;;;;;;7.30;5.35;;;;;;;;;;5101605;28;20051;-58
2024/03/13 01:12:45;;;;;;;7.63;5.90;;;;;;;;;;5103181;28;20384;-58
2024/03/13 01:15:14;;;;;;;6.40;5.13;;;;;;;;;;5093993;28;20052;-58
2024/03/13 01:17:42;;;;;;;7.32;5.30;;;;;;;;;;5116039;28;20400;-57
2024/03/13 01:20:10;;;;;;;7.68;4.80;;;;;;;;;;5095964;28;20055;-57
2024/03/13 01:22:37;;;;;;;8.55;5.05;;;;;;;;;;5110399;28;20054;-57
2024/03/13 01:25:05;;;;;;;7.75;5.25;;;;;;;;;;5087943;28;20066;-58
2024/03/13 01:27:32;;;;;;;6.38;4.47;;;;;;;;;;5096484;28;20055;-57
2024/03/13 01:30:01;;;;;;;8.43;4.82;;;;;;;;;;5102982;28;20060;-57
2024/03/13 01:32:28;;;;;;;7.00;4.18;;;;;;;;;;5104194;28;20051;-57
2024/03/13 01:34:55;;;;;;;7.00;4.53;;;;;;;;;;5107838;28;20043;-57
2024/03/13 01:40:08;;;;;;;6.88;4.63;;;;;;;;;;5100837;28;20048;-57
2024/03/13 01:56:30;;;;;;;7.45;4.65;;;;;;;;;;5099562;28;20044;-57
2024/03/13 01:59:07;;;;;;;5.45;3.95;;;;;;;;;;5089700;28;20044;-57
2024/03/13 02:04:20;;;;;;;5.45;3.80;;;;;;;;;;5111101;28;20485;-58
2024/03/13 02:06:47;;;;;;;6.00;4.38;;;;;;;;;;5098698;28;20047;-57
2024/03/13 02:09:15;;;;;;;6.57;4.22;;;;;;;;;;5075429;28;20063;-58
2024/03/13 02:11:42;;;;;;;5.82;4.18;;;;;;;;;;5074651;28;20072;-57
2024/03/13 02:14:09;;;;;;;6.65;4.05;;;;;;;;;;5085396;28;20056;-57
2024/03/13 02:16:36;;;;;;;5.43;3.92;;;;;;;;;;5104269;28;20040;-57
2024/03/13 02:19:03;;;;;;;5.85;4.30;;;;;;;;;;5099174;28;20043;-58
2024/03/13 02:21:32;;;;;;;5.03;3.53;;;;;;;;;;5100757;28;20396;-58
2024/03/13 02:23:59;;;;;;;5.45;3.78;;;;;;;;;;5093420;28;20056;-57
2024/03/13 02:26:26;;;;;;;6.70;4.10;;;;;;;;;;5075845;28;20052;-58
2024/03/13 02:28:53;;;;;;;5.38;4.10;;;;;;;;;;5070324;28;20051;-57
2024/03/13 02:31:20;;;;;;;6.88;4.57;;;;;;;;;;5078422;28;20051;-58
2024/03/13 02:33:47;;;;;;;5.20;3.97;;;;;;;;;;5086542;28;20040;-57
2024/03/13 02:36:13;;;;;;;5.65;4.03;;;;;;;;;;5063318;28;20047;-58
2024/03/13 02:38:40;;;;;;;5.57;3.80;;;;;;;;;;5067446;28;20056;-57
2024/03/13 02:41:07;;;;;;;8.25;4.28;;;;;;;;;;5075546;28;20052;-58
2024/03/13 02:43:36;;;;;;;5.75;3.97;;;;;;;;;;5075724;28;20051;-58
2024/03/13 02:46:03;;;;;;;6.00;4.07;;;;;;;;;;5071011;28;20060;-57
2024/03/13 02:48:30;;;;;;;5.35;3.60;;;;;;;;;;5068786;28;20068;-58
2024/03/13 02:50:57;;;;;;;6.75;3.95;;;;;;;;;;5057225;28;20052;-58
2024/03/13 02:53:24;;;;;;;4.90;3.75;;;;;;;;;;5087997;28;20043;-58
2024/03/13 02:55:53;;;;;;;5.75;3.90;;;;;;;;;;5083531;28;20048;-58
2024/03/13 02:58:21;;;;;;;6.28;4.32;;;;;;;;;;5082656;28;20401;-57
2024/03/13 03:00:48;;;;;;;6.10;4.22;;;;;;;;;;5077719;28;20056;-58
2024/03/13 03:03:15;;;;;;;5.88;4.07;;;;;;;;;;5079361;28;20044;-58
2024/03/13 03:05:42;;;;;;;6.57;4.53;;;;;;;;;;5084956;28;20056;-57
2024/03/13 03:08:09;;;;;;;5.72;4.45;;;;;;;;;;5088179;28;20052;-58
2024/03/13 03:10:35;;;;;;;6.35;4.25;;;;;;;;;;5070642;28;20505;-57
2024/03/13 03:13:04;;;;;;;6.28;4.18;;;;;;;;;;5083477;28;20043;-57
2024/03/13 03:15:33;;;;;;;6.05;4.07;;;;;;;;;;5083377;28;20417;-57
2024/03/13 03:18:00;;;;;;;5.68;4.22;;;;;;;;;;5069745;28;20066;-58
2024/03/13 03:20:27;;;;;;;5.13;3.78;;;;;;;;;;5076159;28;20055;-58
2024/03/13 03:22:54;;;;;;;5.28;4.18;;;;;;;;;;5084675;28;20047;-58
2024/03/13 03:25:23;;;;;;;6.35;4.07;;;;;;;;;;5080995;28;20393;-58
2024/03/13 03:27:50;;;;;;;4.15;3.25;;;;;;;;;;5073568;28;20116;-57
2024/03/13 03:30:17;;;;;;;5.10;3.83;;;;;;;;;;5083038;28;20138;-57
2024/03/13 03:32:45;;;;;;;4.97;3.38;;;;;;;;;;5083491;28;20477;-57
2024/03/13 03:35:12;;;;;;;5.18;3.78;;;;;;;;;;5072002;28;20058;-58
2024/03/13 03:37:39;;;;;;;5.70;3.67;;;;;;;;;;5073386;28;20059;-58
2024/03/13 03:40:08;;;;;;;5.15;3.70;;;;;;;;;;5074936;28;20070;-58
2024/03/13 03:42:35;;;;;;;4.70;3.40;;;;;;;;;;5074660;28;20060;-57
2024/03/13 03:45:03;;;;;;;4.97;3.50;;;;;;;;;;5085048;28;20052;-58
2024/03/13 03:47:30;;;;;;;4.97;3.75;;;;;;;;;;5084072;28;20063;-58
2024/03/13 03:49:57;;;;;;;5.70;3.63;;;;;;;;;;5082107;28;20055;-58
2024/03/13 03:52:27;;;;;;;4.40;3.28;;;;;;;;;;5080766;28;20408;-58
2024/03/13 03:54:53;;;;;;;5.10;3.67;;;;;;;;;;5090991;28;20404;-57
2024/03/13 03:57:20;;;;;;;5.25;3.67;;;;;;;;;;5094749;28;20062;-57
2024/03/13 03:59:47;;;;;;;4.18;3.10;;;;;;;;;;5073589;28;20074;-57
2024/03/13 04:02:16;;;;;;;5.07;3.70;;;;;;;;;;5079006;28;20055;-57
2024/03/13 04:04:43;;;;;;;4.32;3.13;;;;;;;;;;5080064;28;20064;-58
2024/03/13 04:07:11;;;;;;;3.97;3.25;;;;;;;;;;5079321;28;20052;-58
2024/03/13 04:09:37;;;;;;;4.13;3.10;;;;;;;;;;5077257;28;20052;-58
2024/03/13 04:12:04;;;;;;;4.65;3.33;;;;;;;;;;5081649;28;20048;-58
2024/03/13 04:14:31;;;;;;;3.92;3.33;;;;;;;;;;5075480;28;20048;-58
2024/03/13 04:16:58;;;;;;;4.88;3.22;;;;;;;;;;5080096;28;20048;-58
2024/03/13 04:19:25;;;;;;;4.18;3.03;;;;;;;;;;5071767;28;20390;-58
2024/03/13 04:21:52;;;;;;;4.40;3.03;;;;;;;;;;5076958;28;20053;-57
2024/03/13 04:24:19;;;;;;;5.15;3.17;;;;;;;;;;5079491;28;20039;-58
2024/03/13 04:26:46;;;;;;;5.95;3.65;;;;;;;;;;5069865;28;20051;-58
2024/03/13 04:29:13;;;;;;;4.65;3.25;;;;;;;;;;5067772;28;20053;-58
2024/03/13 04:31:40;;;;;;;5.70;3.97;;;;;;;;;;5072957;28;20511;-58
2024/03/13 04:34:07;;;;;;;4.85;3.63;;;;;;;;;;5074328;28;20048;-58
2024/03/13 04:36:36;;;;;;;4.75;3.40;;;;;;;;;;5080016;28;20067;-58
2024/03/13 04:39:05;;;;;;;4.70;3.40;;;;;;;;;;5083266;28;20050;-58
2024/03/13 04:41:33;;;;;;;4.95;3.50;;;;;;;;;;5085822;28;20047;-58
2024/03/13 04:44:00;;;;;;;4.70;3.35;;;;;;;;;;5071879;28;20064;-58
2024/03/13 04:46:27;;;;;;;4.38;3.17;;;;;;;;;;5073564;28;20055;-57
2024/03/13 04:48:53;;;;;;;4.43;3.08;;;;;;;;;;5094891;28;20044;-57
2024/03/13 04:51:20;;;;;;;4.38;3.17;;;;;;;;;;5097717;28;20055;-57
2024/03/13 04:53:47;;;;;;;5.22;3.22;;;;;;;;;;5091318;28;20462;-58
2024/03/13 04:56:14;;;;;;;4.15;3.10;;;;;;;;;;5079680;28;20055;-57
2024/03/13 04:58:41;;;;;;;5.50;3.13;;;;;;;;;;5084482;28;20059;-57
2024/03/13 05:01:08;;;;;;;5.28;2.75;;;;;;;;;;5077062;28;20405;-57
2024/03/13 05:03:35;;;;;;;5.68;3.65;;;;;;;;;;5065670;28;20047;-57
2024/03/13 05:06:02;;;;;;;4.35;2.55;;;;;;;;;;5073878;28;20048;-57
2024/03/13 05:08:29;;;;;;;4.50;3.00;;;;;;;;;;5080906;28;20055;-56
2024/03/13 05:10:56;;;;;;;4.60;3.00;;;;;;;;;;5077511;28;20489;-56
2024/03/13 05:13:23;;;;;;;4.78;3.33;;;;;;;;;;5078414;28;20052;-57
2024/03/13 05:15:51;;;;;;;4.00;3.28;;;;;;;;;;5078019;28;20466;-57
2024/03/13 05:18:18;;;;;;;5.38;3.83;;;;;;;;;;5086575;28;20048;-56
2024/03/13 05:20:45;;;;;;;4.10;2.65;;;;;;;;;;5083916;28;20052;-57
2024/03/13 05:23:12;;;;;;;6.78;4.85;;;;;;;;;;5078389;28;20052;-56
2024/03/13 05:25:39;;;;;;;4.38;3.10;;;;;;;;;;5102933;28;20051;-56
2024/03/13 05:28:06;;;;;;;3.28;2.45;;;;;;;;;;5097188;28;20056;-54
2024/03/13 05:30:33;;;;;;;3.80;2.63;;;;;;;;;;5091030;28;20058;-55
2024/03/13 05:32:59;;;;;;;3.33;2.30;;;;;;;;;;5074965;28;20044;-55
2024/03/13 05:35:26;;;;;;;2.65;2.20;;;;;;;;;;5057116;28;20048;-55
2024/03/13 05:37:54;;;;;;;4.35;2.78;;;;;;;;;;5057668;28;20055;-55
2024/03/13 05:40:21;;;;;;;3.40;2.50;;;;;;;;;;5056761;28;20048;-55
2024/03/13 05:42:48;;;;;;;2.95;2.15;;;;;;;;;;5063342;28;20047;-55
2024/03/13 05:45:15;;;;;;;3.33;2.38;;;;;;;;;;5076321;28;20051;-56
2024/03/13 05:47:42;;;;;;;3.72;2.30;;;;;;;;;;5074241;28;20056;-56
2024/03/13 05:50:09;;;;;;;3.08;2.40;;;;;;;;;;5075555;28;20052;-56
2024/03/13 05:52:36;;;;;;;3.88;2.30;;;;;;;;;;5078474;28;20477;-56
2024/03/13 05:55:04;;;;;;;3.42;2.50;;;;;;;;;;5077800;28;20055;-58
2024/03/13 05:57:30;;;;;;;3.03;2.33;;;;;;;;;;5067181;28;20060;-57
2024/03/13 05:59:57;;;;;;;3.65;2.50;;;;;;;;;;5070835;28;20055;-56
2024/03/13 06:02:25;;;;;;;2.83;2.05;;;;;;;;;;5068873;28;20056;-56
2024/03/13 06:05:02;;;;;;;3.70;2.10;;;;;;;;;;5090131;28;20040;-55
2024/03/13 06:07:29;;;;;;;3.83;2.30;;;;;;;;;;5085175;28;20075;-56
2024/03/13 06:09:56;;;;;;;3.75;2.28;;;;;;;;;;5065578;28;20049;-56
2024/03/13 06:12:22;;;;;;;3.90;1.90;;;;;;;;;;5081240;28;20048;-56
2024/03/13 06:14:49;;;;;;;3.10;2.00;;;;;;;;;;5073969;28;20040;-56
2024/03/13 06:17:17;;;;;;;3.78;2.20;;;;;;;;;;5077222;28;20058;-57
2024/03/13 06:19:44;;;;;;;3.83;2.22;;;;;;;;;;5070646;28;20056;-57
2024/03/13 06:22:11;;;;;;;3.90;2.55;;;;;;;;;;5076520;28;20063;-57
2024/03/13 06:24:37;;;;;;;3.22;2.45;;;;;;;;;;5066893;28;20056;-57
2024/03/13 06:27:08;;;;;;;3.70;2.67;;;;;;;;;;5071400;28;20052;-57
2024/03/13 06:32:22;;;;;;;3.83;3.28;;;;;;;;;;5080489;28;20424;-57
2024/03/13 06:34:48;;;;;;;3.25;2.38;;;;;;;;;;5077865;28;20049;-57
2024/03/13 06:37:15;;;;;;;4.07;2.95;;;;;;;;;;5075517;28;20048;-56
2024/03/13 06:39:42;;;;;;;3.20;2.28;;;;;;;;;;5092952;28;20047;-56
2024/03/13 06:42:11;;;;;;;2.60;2.10;;;;;;;;;;5073009;28;20067;-55
2024/03/13 06:44:38;;;;;;;4.33;2.63;;;;;;;;;;5076536;28;20051;-57
2024/03/13 06:47:04;;;;;;;3.72;2.60;;;;;;;;;;5060350;28;20056;-56
2024/03/13 06:49:31;;;;;;;3.63;2.20;;;;;;;;;;5055026;28;20058;-57
2024/03/13 06:51:58;;;;;;;2.92;2.10;;;;;;;;;;5057002;28;20048;-57
2024/03/13 06:54:25;;;;;;;3.22;2.40;;;;;;;;;;5055444;28;20413;-57
2024/03/13 06:56:52;;;;;;;2.88;2.10;;;;;;;;;;5056052;28;20048;-57
2024/03/13 06:59:19;;;;;;;2.95;1.73;;;;;;;;;;5058194;28;20056;-57
2024/03/13 07:01:46;;;;;;;2.28;1.52;;;;;;;;;;5054564;28;20462;-57
2024/03/13 07:04:13;;;;;;;3.35;1.73;;;;;;;;;;5061123;28;20058;-57
2024/03/13 07:06:41;;;;;;;2.30;1.60;;;;;;;;;;5056546;28;20049;-56
2024/03/13 07:09:08;;;;;;;3.00;1.70;;;;;;;;;;5058331;28;20534;-57
2024/03/13 07:11:36;;;;;;;1.60;1.30;;;;;;;;;;5061975;28;20063;-58
2024/03/13 07:14:04;;;;;;;2.03;1.30;;;;;;;;;;5069944;28;20394;-57
2024/03/13 07:16:32;;;;;;;2.28;1.42;;;;;;;;;;5053477;28;20071;-57
2024/03/13 07:18:59;;;;;;;2.88;1.70;;;;;;;;;;5066518;28;20063;-57
2024/03/13 07:21:26;;;;;;;2.88;1.40;;;;;;;;;;5058539;28;20515;-57
2024/03/13 07:23:52;;;;;;;2.15;1.10;;;;;;;;;;5062613;28;20052;-56
2024/03/13 07:26:19;;;;;;;2.13;1.20;;;;;;;;;;5057727;28;20040;-56
2024/03/13 07:28:46;;;;;;;1.52;0.93;;;;;;;;;;5051909;28;20481;-58
2024/03/13 07:31:13;;;;;;;2.92;1.25;;;;;;;;;;5047238;28;20493;-56
2024/03/13 07:33:40;;;;;;;1.45;0.82;;;;;;;;;;5051979;28;20059;-57
2024/03/13 07:36:07;;;;;;;2.15;1.00;;;;;;;;;;5063488;28;20133;-57
2024/03/13 07:38:36;;;;;;;1.52;0.80;;;;;;;;;;5053466;28;20056;-57
2024/03/13 07:41:03;;;;;;;1.92;1.10;;;;;;;;;;5068671;28;20051;-55
2024/03/13 07:43:30;;;;;;;2.42;0.90;;;;;;;;;;5047979;28;20079;-57
2024/03/13 07:45:57;;;;;;;1.60;0.98;;;;;;;;;;5059296;28;20060;-58
2024/03/13 07:48:24;;;;;;;2.35;1.00;;;;;;;;;;5048421;28;20087;-57
2024/03/13 07:50:50;;;;;;;2.35;1.10;;;;;;;;;;5056971;28;20056;-57
2024/03/13 07:53:17;;;;;;;1.63;1.00;;;;;;;;;;5056404;28;20402;-57
2024/03/13 07:55:44;;;;;;;2.03;0.90;;;;;;;;;;5053605;28;20060;-58
2024/03/13 07:58:11;;;;;;;1.35;0.93;;;;;;;;;;5044580;28;20414;-58
2024/03/13 08:00:38;;;;;;;2.35;0.80;;;;;;;;;;5051506;28;20044;-57
2024/03/13 08:03:05;;;;;;;2.95;1.00;;;;;;;;;;5046294;28;20053;-57
2024/03/13 08:05:31;;;;;;;3.22;1.00;;;;;;;;;;5057073;28;20049;-57
2024/03/13 08:07:58;;;;;;;2.05;0.90;;;;;;;;;;5058143;28;20056;-58
2024/03/13 08:10:25;;;;;;;1.92;0.90;;;;;;;;;;5056426;28;20390;-57
2024/03/13 08:12:52;;;;;;;1.40;0.88;;;;;;;;;;5066508;28;20061;-57
2024/03/13 08:15:19;;;;;;;1.10;0.70;;;;;;;;;;5057493;28;20071;-56
2024/03/13 08:17:46;;;;;;;1.40;0.70;;;;;;;;;;5064194;28;20427;-56
2024/03/13 08:20:14;;;;;;;1.30;0.73;;;;;;;;;;5054301;28;20068;-57
2024/03/13 08:22:42;;;;;;;1.77;0.70;;;;;;;;;;5050073;28;20059;-57
2024/03/13 08:25:11;;;;;;;1.58;0.80;;;;;;;;;;5049204;28;20190;-58
2024/03/13 08:27:38;;;;;;;2.13;0.90;;;;;;;;;;5046470;28;20064;-57
2024/03/13 08:30:05;;;;;;;1.30;0.70;;;;;;;;;;5046436;28;20045;-58
2024/03/13 08:32:32;;;;;;;2.22;0.80;;;;;;;;;;5056355;28;20052;-57
2024/03/13 08:34:59;;;;;;;1.73;0.70;;;;;;;;;;5053831;28;20049;-57
2024/03/13 08:37:26;;;;;;;1.65;0.75;;;;;;;;;;5048902;28;20067;-55
2024/03/13 08:39:53;;;;;;;1.35;0.68;;;;;;;;;;5056746;28;20047;-57
2024/03/13 08:42:21;;;;;;;1.40;0.70;;;;;;;;;;5048939;28;20063;-55
2024/03/13 08:44:48;;;;;;;1.65;0.65;;;;;;;;;;5057107;28;20056;-57
2024/03/13 08:47:18;;;;;;;1.23;0.65;;;;;;;;;;5052908;28;20394;-56
2024/03/13 08:49:45;;;;;;;1.60;1.00;;;;;;;;;;5051507;28;20055;-57
2024/03/13 08:52:12;;;;;;;1.50;0.75;;;;;;;;;;5053170;28;20068;-58
2024/03/13 08:54:41;;;;;;;1.95;0.73;;;;;;;;;;5057060;28;20075;-55
2024/03/13 08:57:08;;;;;;;1.52;0.80;;;;;;;;;;5056870;28;20071;-55
2024/03/13 08:59:35;;;;;;;2.33;0.80;;;;;;;;;;5050820;28;20053;-55
2024/03/13 09:02:04;;;;;;;1.30;0.80;;;;;;;;;;5068178;28;20057;-56
2024/03/13 09:04:31;;;;;;;1.42;0.75;;;;;;;;;;5055074;28;20044;-56
2024/03/13 09:07:00;;;;;;;1.70;0.80;;;;;;;;;;5062044;28;20048;-56
2024/03/13 09:09:27;;;;;;;1.85;0.80;;;;;;;;;;5054278;28;20074;-58
2024/03/13 09:11:54;;;;;;;1.38;0.70;;;;;;;;;;5059752;28;20063;-54
2024/03/13 09:14:24;;;;;;;1.50;0.90;;;;;;;;;;5049942;28;20056;-58
2024/03/13 09:16:51;;;;;;;1.48;0.70;;;;;;;;;;5050492;28;20394;-57
2024/03/13 09:19:17;;;;;;;1.20;0.60;;;;;;;;;;5055001;28;20053;-56
2024/03/13 09:21:47;;;;;;;1.75;0.70;;;;;;;;;;5069271;28;20059;-57
2024/03/13 09:24:15;;;;;;;1.25;0.65;;;;;;;;;;5069615;28;20052;-56
2024/03/13 09:26:42;;;;;;;1.15;0.70;;;;;;;;;;5057996;28;20505;-59
2024/03/13 09:29:09;;;;;;;0.90;0.50;;;;;;;;;;5051373;28;20413;-56
2024/03/13 09:31:39;;;;;;;1.42;0.75;;;;;;;;;;5052391;28;20508;-57
2024/03/13 09:34:10;;;;;;;1.40;0.80;;;;;;;;;;5069411;28;20386;-57
2024/03/13 09:36:37;;;;;;;2.67;0.70;;;;;;;;;;5066278;28;20039;-55
2024/03/13 09:39:04;;;;;;;2.08;0.80;;;;;;;;;;5061991;28;20056;-55
2024/03/13 09:41:31;;;;;;;1.40;0.70;;;;;;;;;;5062323;28;20493;-56
2024/03/13 09:43:58;;;;;;;1.92;0.70;;;;;;;;;;5066620;28;20048;-55
2024/03/13 09:46:25;;;;;;;1.27;0.80;;;;;;;;;;5058388;28;20078;-54
2024/03/13 09:48:52;;;;;;;1.17;0.60;;;;;;;;;;5061625;28;20057;-53
2024/03/13 09:51:22;;;;;;;1.77;0.90;;;;;;;;;;5043761;28;20056;-56
2024/03/13 09:53:49;;;;;;;1.67;0.90;;;;;;;;;;5050059;28;20489;-55
2024/03/13 09:56:17;;;;;;;1.70;0.77;;;;;;;;;;5047945;28;20063;-54
2024/03/13 09:58:45;;;;;;;2.63;1.08;;;;;;;;;;5053746;28;20390;-57
2024/03/13 10:01:11;;;;;;;1.10;0.70;;;;;;;;;;5052821;28;20055;-56
2024/03/13 10:03:38;;;;;;;1.20;0.70;;;;;;;;;;5062306;28;20055;-56
2024/03/13 10:06:05;;;;;;;1.38;0.82;;;;;;;;;;5059517;28;20048;-56
2024/03/13 10:08:32;;;;;;;2.15;1.00;;;;;;;;;;5055518;28;20048;-54
2024/03/13 10:11:00;;;;;;;1.77;0.90;;;;;;;;;;5063778;28;20056;-55
2024/03/13 10:13:27;;;;;;;1.75;0.80;;;;;;;;;;5061075;28;20049;-57
2024/03/13 10:15:54;;;;;;;2.50;0.90;;;;;;;;;;5058404;28;20060;-56
2024/03/13 10:18:21;;;;;;;1.30;0.70;;;;;;;;;;5038008;28;20396;-56
2024/03/13 10:20:48;;;;;;;1.48;0.70;;;;;;;;;;5056932;28;20048;-56
2024/03/13 10:23:14;;;;;;;1.35;0.70;;;;;;;;;;5055310;28;20053;-56
2024/03/13 10:25:41;;;;;;;1.00;0.70;;;;;;;;;;5062748;28;20040;-55
2024/03/13 10:28:11;;;;;;;1.73;0.80;;;;;;;;;;5065915;28;20414;-55
2024/03/13 10:30:38;;;;;;;1.20;0.70;;;;;;;;;;5058420;28;20421;-56
2024/03/13 10:33:05;;;;;;;2.38;0.70;;;;;;;;;;5080665;28;20077;-56
2024/03/13 10:35:32;;;;;;;3.15;1.00;;;;;;;;;;5060585;28;20425;-56
2024/03/13 10:37:58;;;;;;;1.15;0.70;;;;;;;;;;5068017;28;20052;-56
2024/03/13 10:40:25;;;;;;;1.23;0.70;;;;;;;;;;5074441;28;20048;-55
2024/03/13 10:42:52;;;;;;;2.20;0.80;;;;;;;;;;5075463;28;20059;-56
2024/03/13 10:45:19;;;;;;;1.20;0.70;;;;;;;;;;5075864;28;20051;-55
2024/03/13 10:47:46;;;;;;;1.00;0.63;;;;;;;;;;5060187;28;20049;-56
2024/03/13 10:50:13;;;;;;;1.50;0.70;;;;;;;;;;5041956;28;20422;-56
2024/03/13 10:52:40;;;;;;;2.35;0.70;;;;;;;;;;5038976;28;20049;-56
2024/03/13 10:55:07;;;;;;;1.17;0.82;;;;;;;;;;5050193;28;20055;-60
2024/03/13 10:57:36;;;;;;;1.52;0.85;;;;;;;;;;5034263;28;20052;-56
2024/03/13 11:00:10;;;;;;;2.47;1.00;;;;;;;;;;5035735;28;20383;-56
2024/03/13 11:02:37;;;;;;;2.58;1.00;;;;;;;;;;5036301;28;20124;-56
2024/03/13 11:05:04;;;;;;;1.98;1.13;;;;;;;;;;5035462;28;20056;-55
2024/03/13 11:07:31;;;;;;;1.73;0.90;;;;;;;;;;5034956;28;20060;-56
2024/03/13 11:09:58;;;;;;;2.45;1.25;;;;;;;;;;5033419;28;20056;-56
2024/03/13 11:12:25;;;;;;;2.67;1.02;;;;;;;;;;5033648;28;20060;-54
2024/03/13 11:14:52;;;;;;;2.28;1.40;;;;;;;;;;5033389;28;20053;-56
2024/03/13 11:17:19;;;;;;;1.80;1.25;;;;;;;;;;5033265;28;20060;-56
2024/03/13 11:19:46;;;;;;;2.28;1.35;;;;;;;;;;5033401;28;20060;-56
2024/03/13 11:22:14;;;;;;;4.15;1.20;;;;;;;;;;5033439;28;20377;-56
2024/03/13 11:24:41;;;;;;;2.25;1.25;;;;;;;;;;5033357;28;20427;-56
2024/03/13 11:27:10;;;;;;;2.45;1.30;;;;;;;;;;5033222;28;20049;-56
2024/03/13 11:29:39;;;;;;;1.70;1.15;;;;;;;;;;5033225;28;20521;-56
2024/03/13 11:32:06;;;;;;;2.17;1.30;;;;;;;;;;5033232;28;20060;-56
2024/03/13 11:34:34;;;;;;;2.97;1.30;;;;;;;;;;5034494;28;20490;-56
2024/03/13 11:37:04;;;;;;;2.03;1.33;;;;;;;;;;5034886;28;20045;-54
2024/03/13 11:39:31;;;;;;;1.80;1.23;;;;;;;;;;5051768;28;20063;-56
2024/03/13 11:42:06;;;;;;;3.67;1.70;;;;;;;;;;5054609;28;20485;-61
2024/03/13 11:44:33;;;;;;;5.63;2.10;;;;;;;;;;5054953;28;20056;-60
2024/03/13 11:47:00;;;;;;;2.30;1.80;;;;;;;;;;5062414;28;20063;-60
2024/03/13 11:49:30;;;;;;;3.85;1.75;;;;;;;;;;5058206;28;20173;-60
2024/03/13 11:52:09;;;;;;;3.40;1.87;;;;;;;;;;5074707;28;20059;-60
2024/03/13 11:54:39;;;;;;;3.15;2.03;;;;;;;;;;5074823;28;20059;-60
2024/03/13 11:57:05;;;;;;;4.97;2.40;;;;;;;;;;5074652;28;20401;-60
2024/03/13 11:59:39;;;;;;;3.22;2.05;;;;;;;;;;5074034;28;20052;-60
2024/03/13 12:02:06;;;;;;;3.38;2.42;;;;;;;;;;5074691;28;20052;-60
2024/03/13 12:04:35;;;;;;;3.70;2.63;;;;;;;;;;5074159;28;20051;-61
2024/03/13 12:07:03;;;;;;;3.85;2.80;;;;;;;;;;5074283;28;20051;-61
2024/03/13 12:09:29;;;;;;;3.88;2.70;;;;;;;;;;5074610;28;20060;-60
2024/03/13 12:11:56;;;;;;;4.18;2.50;;;;;;;;;;5074223;28;20059;-60
2024/03/13 12:14:23;;;;;;;3.67;2.60;;;;;;;;;;5074173;28;20051;-61
2024/03/13 12:16:50;;;;;;;4.07;3.20;;;;;;;;;;5074001;28;20044;-61
2024/03/13 12:19:17;;;;;;;6.18;3.30;;;;;;;;;;5074453;28;20059;-60
2024/03/13 12:21:44;;;;;;;6.22;3.92;;;;;;;;;;5073824;28;20465;-63
2024/03/13 12:24:11;;;;;;;5.85;4.05;;;;;;;;;;5074169;28;20056;-62
2024/03/13 12:26:39;;;;;;;5.47;4.47;;;;;;;;;;5073838;28;20051;-61
2024/03/13 12:29:05;;;;;;;8.85;5.53;;;;;;;;;;5074137;28;20056;-61
2024/03/13 12:31:32;;;;;;;7.55;5.15;;;;;;;;;;5074360;28;20111;-61
2024/03/13 12:33:59;;;;;;;6.68;5.68;;;;;;;;;;5073747;28;20056;-57
2024/03/13 12:36:28;;;;;;;7.43;6.50;;;;;;;;;;5073965;28;20052;-61
2024/03/13 12:38:54;;;;;;;7.95;6.20;;;;;;;;;;5074100;28;20048;-60
2024/03/13 12:41:21;;;;;;;10.15;5.85;;;;;;;;;;5073816;28;20048;-59
2024/03/13 12:43:48;;;;;;;9.82;6.82;;;;;;;;;;5073983;28;20052;-60
2024/03/13 12:46:15;;;;;;;7.95;5.63;;;;;;;;;;5073779;28;20059;-60
2024/03/13 12:48:42;;;;;;;7.65;5.80;;;;;;;;;;5074032;28;20044;-55
2024/03/13 12:51:09;;;;;;;8.88;6.18;;;;;;;;;;5076231;28;20048;-57
2024/03/13 12:53:36;;;;;;;9.82;7.10;;;;;;;;;;5077960;28;20067;-56
2024/03/13 12:56:05;;;;;;;9.07;6.70;;;;;;;;;;5077845;28;20051;-56
2024/03/13 12:58:32;;;;;;;8.48;6.80;;;;;;;;;;5077647;28;20482;-56
2024/03/13 13:00:59;;;;;;;7.57;6.25;;;;;;;;;;5077712;28;20047;-56
2024/03/13 13:03:25;;;;;;;11.30;7.00;;;;;;;;;;5077595;28;20063;-56
2024/03/13 13:05:52;;;;;;;8.38;6.47;;;;;;;;;;5077330;28;20056;-57
2024/03/13 13:08:21;;;;;;;7.55;6.75;;;;;;;;;;5077488;28;20481;-56
2024/03/13 13:10:50;;;;;;;7.65;6.15;;;;;;;;;;5077708;28;20052;-56
2024/03/13 13:13:17;;;;;;;8.77;6.35;;;;;;;;;;5077784;28;20056;-55
2024/03/13 13:15:45;;;;;;;8.90;6.10;;;;;;;;;;5076992;28;20055;-56
2024/03/13 13:18:13;;;;;;;7.50;6.65;;;;;;;;;;5077362;28;20405;-56
2024/03/13 13:20:40;;;;;;;7.88;6.07;;;;;;;;;;5077745;28;20062;-56
2024/03/13 13:23:09;;;;;;;8.82;6.50;;;;;;;;;;5077442;28;20056;-56
2024/03/13 13:25:37;;;;;;;12.27;7.60;;;;;;;;;;5077095;28;20439;-57
2024/03/13 13:28:04;;;;;;;8.55;7.00;;;;;;;;;;5076963;28;20504;-56
2024/03/13 13:30:35;;;;;;;9.60;7.47;;;;;;;;;;5076998;28;20055;-56
2024/03/13 13:33:03;;;;;;;12.13;7.10;;;;;;;;;;5077872;28;20070;-56
2024/03/13 13:35:29;;;;;;;9.23;7.18;;;;;;;;;;5077145;28;20048;-56
2024/03/13 13:37:58;;;;;;;6.53;5.90;;;;;;;;;;5076808;28;20051;-56
2024/03/13 13:40:25;;;;;;;6.93;6.15;;;;;;;;;;5077439;28;20048;-55
2024/03/13 13:42:54;;;;;;;7.18;6.20;;;;;;;;;;5076375;28;20052;-55
2024/03/13 13:45:22;;;;;;;8.05;6.22;;;;;;;;;;5076377;28;20445;-56
2024/03/13 13:47:51;;;;;;;6.72;5.80;;;;;;;;;;5076509;28;20052;-56
2024/03/13 13:50:18;;;;;;;6.95;6.05;;;;;;;;;;5076788;28;20060;-56
2024/03/13 13:52:45;;;;;;;7.97;6.05;;;;;;;;;;5076530;28;20052;-55
2024/03/13 13:55:12;;;;;;;7.97;5.65;;;;;;;;;;5076444;28;20056;-56
2024/03/13 13:57:39;;;;;;;6.88;6.07;;;;;;;;;;5076209;28;20055;-56
2024/03/13 14:00:09;;;;;;;8.25;6.47;;;;;;;;;;5076015;28;20387;-54
2024/03/13 14:02:36;;;;;;;8.30;6.03;;;;;;;;;;5076733;28;20056;-55
2024/03/13 14:05:05;;;;;;;7.25;5.70;;;;;;;;;;5076399;28;20058;-56
2024/03/13 14:07:34;;;;;;;8.67;6.70;;;;;;;;;;5076521;28;20048;-56
2024/03/13 14:10:00;;;;;;;10.90;6.60;;;;;;;;;;5076577;28;20052;-57
2024/03/13 14:12:32;;;;;;;7.45;6.25;;;;;;;;;;5076104;28;20051;-56
2024/03/13 14:14:59;;;;;;;8.45;6.40;;;;;;;;;;5076488;28;20075;-56
2024/03/13 14:17:28;;;;;;;7.30;6.57;;;;;;;;;;5076061;28;20071;-57
2024/03/13 14:19:55;;;;;;;7.70;6.45;;;;;;;;;;5076823;28;20051;-57
2024/03/13 14:22:22;;;;;;;8.75;6.57;;;;;;;;;;5075936;28;20064;-56
2024/03/13 14:24:49;;;;;;;7.90;6.20;;;;;;;;;;5075833;28;20056;-55
2024/03/13 14:27:16;;;;;;;9.85;6.43;;;;;;;;;;5075639;28;20382;-56
2024/03/13 14:29:42;;;;;;;8.05;5.82;;;;;;;;;;5075776;28;20048;-56
2024/03/13 14:32:10;;;;;;;7.85;6.60;;;;;;;;;;5075647;28;20501;-56
2024/03/13 14:34:39;;;;;;;7.97;6.22;;;;;;;;;;5075798;28;20048;-57
2024/03/13 14:37:06;;;;;;;8.88;6.22;;;;;;;;;;5075792;28;20408;-56
2024/03/13 14:39:32;;;;;;;7.43;6.60;;;;;;;;;;5075590;28;20056;-56
2024/03/13 14:42:01;;;;;;;8.07;6.40;;;;;;;;;;5075557;28;20052;-56
2024/03/13 14:44:28;;;;;;;9.45;7.28;;;;;;;;;;5075554;28;20056;-56
2024/03/13 14:46:54;;;;;;;8.13;6.88;;;;;;;;;;5075424;28;20056;-56
2024/03/13 14:49:21;;;;;;;8.75;7.60;;;;;;;;;;5075322;28;20052;-56
2024/03/13 14:51:48;;;;;;;9.80;7.95;;;;;;;;;;5075223;28;20385;-56
2024/03/13 14:54:15;;;;;;;8.82;7.32;;;;;;;;;;5075246;28;20056;-56
2024/03/13 14:56:42;;;;;;;11.20;7.63;;;;;;;;;;5075290;28;20052;-56
2024/03/13 14:59:09;;;;;;;11.10;9.00;;;;;;;;;;5075555;28;20055;-57
2024/03/13 15:01:36;;;;;;;9.55;7.65;;;;;;;;;;5075368;28;20071;-56
2024/03/13 15:04:04;;;;;;;11.45;8.50;;;;;;;;;;5075687;28;20056;-57
2024/03/13 15:06:30;;;;;;;12.45;8.45;;;;;;;;;;5075390;28;20048;-55